createdAt,value
2018-04-07T00:00:03.448Z,8.87
2018-04-07T00:02:31.034Z,8.63
2018-04-07T00:04:58.674Z,8.67
2018-04-07T00:07:26.308Z,8.07
2018-04-07T00:09:53.870Z,8.93
2018-04-07T00:12:21.463Z,8.10
2018-04-07T00:14:49.035Z,7.77
2018-04-07T00:17:16.670Z,7.77
2018-04-07T00:19:44.289Z,8.80
2018-04-07T00:22:11.850Z,7.70
2018-04-07T00:24:39.417Z,7.80
2018-04-07T00:27:07.070Z,7.73
2018-04-07T00:29:34.673Z,7.57
2018-04-07T00:32:02.312Z,8.80
2018-04-07T00:34:29.954Z,8.67
2018-04-07T00:36:57.518Z,8.83
2018-04-07T00:39:25.091Z,8.80
2018-04-07T00:41:52.682Z,8.90
2018-04-07T00:44:20.358Z,8.50
2018-04-07T00:46:47.945Z,8.20
2018-04-07T00:49:15.528Z,8.00
2018-04-07T00:51:43.101Z,8.77
2018-04-07T00:54:10.662Z,7.10
2018-04-07T00:56:38.402Z,8.57
2018-04-07T00:59:06.018Z,8.67
2018-04-07T01:01:33.599Z,8.70
2018-04-07T01:04:01.154Z,7.83
2018-04-07T01:06:28.713Z,8.40
2018-04-07T01:08:56.394Z,7.90
2018-04-07T01:11:23.957Z,9.10
2018-04-07T01:13:51.532Z,8.10
2018-04-07T01:16:19.106Z,7.90
2018-04-07T01:18:46.670Z,7.73
2018-04-07T01:21:14.320Z,7.80
2018-04-07T01:23:41.943Z,8.60
2018-04-07T01:26:09.510Z,8.63
2018-04-07T01:28:37.086Z,8.47
2018-04-07T01:31:04.668Z,8.97
2018-04-07T01:33:32.310Z,8.63
2018-04-07T01:35:59.871Z,8.80
2018-04-07T01:38:27.445Z,9.43
2018-04-07T01:40:55.078Z,8.90
2018-04-07T01:43:22.658Z,8.30
2018-04-07T01:45:50.294Z,9.27
2018-04-07T01:48:17.865Z,9.63
2018-04-07T01:50:45.497Z,8.17
2018-04-07T01:53:13.078Z,10.60
2018-04-07T01:55:40.641Z,9.10
2018-04-07T01:58:08.360Z,8.70
2018-04-07T02:00:35.961Z,9.53
2018-04-07T02:03:03.537Z,8.80
2018-04-07T02:05:31.110Z,8.60
2018-04-07T02:07:58.691Z,8.80
2018-04-07T02:10:26.339Z,8.53
2018-04-07T02:12:53.895Z,9.27
2018-04-07T02:15:21.455Z,8.67
2018-04-07T02:17:49.037Z,9.03
2018-04-07T02:20:17.486Z,8.37
2018-04-07T02:22:45.132Z,9.17
2018-04-07T02:25:12.715Z,9.63
2018-04-07T02:27:40.344Z,9.53
2018-04-07T02:30:07.945Z,8.50
2018-04-07T02:32:35.532Z,8.23
2018-04-07T02:35:03.207Z,8.80
2018-04-07T02:37:30.873Z,8.50
2018-04-07T02:39:58.446Z,10.03
2018-04-07T02:42:26.103Z,7.90
2018-04-07T02:44:53.698Z,8.07
2018-04-07T02:47:21.350Z,8.67
2018-04-07T02:49:48.920Z,8.90
2018-04-07T02:52:16.533Z,9.60
2018-04-07T02:54:44.110Z,9.63
2018-04-07T02:57:11.733Z,9.67
2018-04-07T02:59:39.351Z,8.60
2018-04-07T03:02:06.998Z,9.63
2018-04-07T03:04:34.588Z,11.70
2018-04-07T03:07:02.236Z,11.40
2018-04-07T03:09:29.813Z,11.37
2018-04-07T03:11:57.437Z,10.77
2018-04-07T03:14:25.026Z,11.17
2018-04-07T03:16:52.685Z,13.07
2018-04-07T03:19:20.300Z,13.17
2018-04-07T03:21:48.214Z,13.07
2018-04-07T03:24:15.832Z,12.57
2018-04-07T03:26:43.426Z,12.23
2018-04-07T03:29:11.110Z,13.00
2018-04-07T03:31:38.752Z,18.77
2018-04-07T03:34:06.334Z,14.80
2018-04-07T03:36:33.982Z,15.10
2018-04-07T03:39:01.567Z,12.87
2018-04-07T03:41:29.138Z,13.87
2018-04-07T03:43:56.806Z,13.83
2018-04-07T03:46:24.463Z,13.33
2018-04-07T03:48:52.111Z,12.93
2018-04-07T03:51:19.721Z,12.40
2018-04-07T03:53:47.302Z,14.10
2018-04-07T03:56:14.958Z,12.60
2018-04-07T03:58:42.553Z,12.47
2018-04-07T04:01:10.255Z,12.27
2018-04-07T04:03:37.880Z,12.20
2018-04-07T04:06:05.510Z,14.37
2018-04-07T04:08:33.198Z,12.30
2018-04-07T04:11:00.785Z,13.27
2018-04-07T04:13:28.352Z,14.53
2018-04-07T04:15:55.933Z,14.20
2018-04-07T04:18:23.526Z,13.13
2018-04-07T04:20:51.173Z,14.00
2018-04-07T04:23:18.811Z,13.40
2018-04-07T04:25:46.464Z,13.00
2018-04-07T04:28:14.095Z,10.93
2018-04-07T04:30:41.702Z,15.30
2018-04-07T04:33:09.338Z,12.40
2018-04-07T04:35:36.911Z,14.73
2018-04-07T04:38:04.593Z,15.60
2018-04-07T04:40:32.230Z,12.37
2018-04-07T04:42:59.802Z,12.93
2018-04-07T04:45:27.430Z,12.90
2018-04-07T04:47:55.062Z,13.57
2018-04-07T04:50:22.731Z,13.00
2018-04-07T04:52:50.368Z,12.40
2018-04-07T04:55:17.993Z,11.40
2018-04-07T04:57:45.632Z,12.10
2018-04-07T05:00:13.238Z,10.50
2018-04-07T05:02:40.822Z,8.53
2018-04-07T05:05:08.386Z,7.33
2018-04-07T05:07:36.022Z,9.03
2018-04-07T05:10:03.647Z,8.37
2018-04-07T05:12:31.273Z,7.67
2018-04-07T05:14:58.866Z,7.10
2018-04-07T05:17:26.490Z,6.83
2018-04-07T05:19:54.155Z,4.73
2018-04-07T05:22:21.779Z,5.10
2018-04-07T05:24:49.354Z,4.40
2018-04-07T05:27:16.918Z,3.83
2018-04-07T05:29:44.526Z,3.50
2018-04-07T05:32:12.147Z,3.37
2018-04-07T05:34:39.706Z,3.23
2018-04-07T05:37:07.394Z,3.10
2018-04-07T05:39:35.009Z,3.27
2018-04-07T05:42:02.596Z,3.20
2018-04-07T05:44:30.177Z,4.27
2018-04-07T05:46:57.786Z,4.07
2018-04-07T05:49:25.377Z,5.17
2018-04-07T05:51:52.945Z,8.27
2018-04-07T05:54:20.580Z,8.90
2018-04-07T05:56:48.186Z,10.50
2018-04-07T05:59:15.761Z,10.60
2018-04-07T06:01:43.330Z,11.00
2018-04-07T06:04:10.978Z,10.63
2018-04-07T06:06:38.544Z,12.10
2018-04-07T06:09:06.867Z,12.53
2018-04-07T06:11:34.445Z,11.43
2018-04-07T06:14:02.010Z,12.40
2018-04-07T06:16:29.638Z,8.37
2018-04-07T06:18:57.238Z,7.40
2018-04-07T06:21:24.889Z,8.47
2018-04-07T06:23:52.514Z,7.77
2018-04-07T06:26:20.138Z,8.17
2018-04-07T06:28:47.760Z,8.30
2018-04-07T06:31:15.374Z,7.40
2018-04-07T06:33:42.958Z,7.57
2018-04-07T06:36:10.523Z,7.17
2018-04-07T06:38:38.220Z,8.27
2018-04-07T06:41:05.781Z,6.97
2018-04-07T06:43:33.342Z,7.90
2018-04-07T06:46:00.912Z,8.23
2018-04-07T06:48:28.534Z,7.93
2018-04-07T06:50:56.104Z,7.73
2018-04-07T06:53:23.671Z,8.30
2018-04-07T06:55:51.360Z,7.80
2018-04-07T06:58:18.933Z,7.00
2018-04-07T07:00:46.500Z,6.67
2018-04-07T07:03:14.082Z,6.90
2018-04-07T07:05:41.627Z,8.00
2018-04-07T07:08:09.198Z,7.37
2018-04-07T07:10:36.758Z,9.00
2018-04-07T07:13:04.424Z,6.43
2018-04-07T07:15:32.048Z,6.10
2018-04-07T07:17:59.658Z,7.60
2018-04-07T07:20:27.287Z,8.00
2018-04-07T07:22:54.858Z,7.57
2018-04-07T07:25:22.457Z,6.47
2018-04-07T07:27:50.083Z,6.17
2018-04-07T07:30:17.694Z,5.37
2018-04-07T07:32:45.254Z,6.17
2018-04-07T07:35:12.818Z,5.60
2018-04-07T07:37:40.387Z,5.43
2018-04-07T07:40:08.047Z,8.27
2018-04-07T07:42:35.618Z,5.37
2018-04-07T07:45:03.229Z,6.00
2018-04-07T07:47:30.845Z,5.93
2018-04-07T07:49:58.431Z,5.70
2018-04-07T07:52:26.050Z,5.83
2018-04-07T07:54:53.622Z,5.53
2018-04-07T07:57:21.191Z,6.20
2018-04-07T07:59:48.766Z,7.37
2018-04-07T08:02:16.329Z,6.43
2018-04-07T08:04:43.981Z,8.00
2018-04-07T08:07:11.562Z,8.70
2018-04-07T08:09:39.142Z,8.50
2018-04-07T08:12:06.713Z,7.47
2018-04-07T08:14:34.273Z,8.77
2018-04-07T08:17:01.908Z,9.27
2018-04-07T08:19:29.475Z,7.87
2018-04-07T08:21:57.155Z,8.07
2018-04-07T08:24:24.785Z,8.83
2018-04-07T08:26:52.412Z,7.97
2018-04-07T08:29:19.990Z,7.93
2018-04-07T08:31:47.943Z,7.33
2018-04-07T08:34:15.526Z,8.40
2018-04-07T08:36:43.154Z,8.00
2018-04-07T08:39:10.798Z,8.23
2018-04-07T08:41:38.362Z,9.40
2018-04-07T08:44:05.926Z,8.30
2018-04-07T08:46:33.562Z,7.67
2018-04-07T08:49:01.258Z,7.10
2018-04-07T08:51:28.840Z,7.93
2018-04-07T08:53:56.447Z,8.03
2018-04-07T08:56:24.070Z,8.13
2018-04-07T08:58:52.149Z,6.90
2018-04-07T09:01:19.792Z,8.03
2018-04-07T09:03:47.375Z,7.23
2018-04-07T09:06:14.950Z,7.20
2018-04-07T09:08:42.537Z,9.60
2018-04-07T09:11:10.112Z,7.97
2018-04-07T09:13:37.730Z,7.67
2018-04-07T09:16:05.384Z,7.27
2018-04-07T09:18:32.954Z,7.37
2018-04-07T09:21:00.530Z,7.33
2018-04-07T09:23:28.094Z,8.53
2018-04-07T09:25:55.718Z,7.83
2018-04-07T09:28:23.360Z,10.17
2018-04-07T09:30:50.999Z,9.20
2018-04-07T09:33:18.645Z,8.43
2018-04-07T09:35:46.228Z,7.10
2018-04-07T09:38:13.864Z,8.17
2018-04-07T09:40:41.451Z,7.70
2018-04-07T09:43:09.102Z,6.93
2018-04-07T09:45:36.679Z,6.63
2018-04-07T09:48:04.254Z,6.50
2018-04-07T09:50:31.877Z,6.00
2018-04-07T09:52:59.513Z,4.47
2018-04-07T09:55:27.085Z,4.93
2018-04-07T09:57:54.643Z,4.40
2018-04-07T10:00:22.248Z,5.00
2018-04-07T10:03:04.639Z,4.07
2018-04-07T10:05:32.200Z,3.70
2018-04-07T10:07:59.887Z,3.87
2018-04-07T10:10:27.450Z,3.80
2018-04-07T10:12:55.028Z,4.10
2018-04-07T10:15:22.603Z,4.10
2018-04-07T10:17:50.226Z,4.13
2018-04-07T10:20:17.829Z,3.67
2018-04-07T10:22:45.402Z,3.10
2018-04-07T10:25:12.993Z,3.67
2018-04-07T10:27:40.570Z,3.10
2018-04-07T10:30:08.134Z,4.00
2018-04-07T10:32:35.806Z,4.23
2018-04-07T10:35:03.371Z,4.33
2018-04-07T10:37:30.938Z,4.10
2018-04-07T10:39:58.567Z,4.27
2018-04-07T10:42:26.126Z,3.30
2018-04-07T10:44:53.743Z,4.73
2018-04-07T10:47:21.313Z,4.80
2018-04-07T10:49:48.947Z,5.30
2018-04-07T10:52:16.598Z,4.17
2018-04-07T10:54:44.231Z,4.23
2018-04-07T10:57:11.848Z,3.90
2018-04-07T10:59:39.446Z,4.27
2018-04-07T11:02:07.026Z,4.60
2018-04-07T11:04:34.607Z,5.20
2018-04-07T11:07:02.176Z,4.67
2018-04-07T11:09:29.802Z,3.90
2018-04-07T11:11:57.380Z,5.80
2018-04-07T11:14:24.988Z,4.87
2018-04-07T11:16:52.578Z,4.30
2018-04-07T11:19:20.145Z,5.20
2018-04-07T11:21:48.029Z,4.53
2018-04-07T11:24:15.592Z,4.90
2018-04-07T11:26:43.155Z,5.50
2018-04-07T11:29:10.823Z,5.17
2018-04-07T11:31:38.401Z,5.80
2018-04-07T11:34:06.028Z,6.57
2018-04-07T11:36:33.600Z,5.27
2018-04-07T11:39:01.159Z,5.57
2018-04-07T11:41:30.961Z,6.10
2018-04-07T11:43:58.527Z,5.47
2018-04-07T11:46:26.224Z,5.90
2018-04-07T11:48:53.794Z,5.97
2018-04-07T11:51:21.363Z,7.20
2018-04-07T11:53:48.939Z,7.83
2018-04-07T11:56:16.575Z,7.47
2018-04-07T11:58:44.258Z,7.20
2018-04-07T12:01:11.890Z,6.80
2018-04-07T12:03:39.526Z,9.13
2018-04-07T12:06:07.158Z,12.03
2018-04-07T12:08:34.817Z,7.83
2018-04-07T12:11:02.456Z,8.00
2018-04-07T12:13:30.030Z,6.57
2018-04-07T12:15:57.697Z,8.27
2018-04-07T12:18:25.274Z,7.40
2018-04-07T12:20:52.907Z,7.40
2018-04-07T12:23:20.530Z,7.03
2018-04-07T12:25:48.099Z,8.10
2018-04-07T12:28:15.670Z,7.67
2018-04-07T12:30:43.251Z,8.23
2018-04-07T12:33:10.824Z,6.73
2018-04-07T12:35:38.438Z,7.43
2018-04-07T12:38:06.018Z,7.53
2018-04-07T12:40:33.671Z,7.53
2018-04-07T12:43:01.248Z,7.60
2018-04-07T12:45:28.918Z,8.80
2018-04-07T12:47:56.540Z,7.73
2018-04-07T12:50:24.110Z,7.67
2018-04-07T12:52:51.693Z,7.47
2018-04-07T12:55:19.349Z,7.73
2018-04-07T12:57:46.981Z,8.73
2018-04-07T13:00:14.606Z,7.73
2018-04-07T13:02:42.217Z,8.77
2018-04-07T13:05:09.786Z,11.60
2018-04-07T13:07:37.378Z,8.20
2018-04-07T13:10:04.941Z,7.17
2018-04-07T13:12:32.646Z,7.53
2018-04-07T13:15:00.253Z,6.57
2018-04-07T13:17:27.866Z,7.37
2018-04-07T13:19:55.465Z,8.37
2018-04-07T13:22:23.076Z,8.30
2018-04-07T13:24:50.716Z,7.73
2018-04-07T13:27:18.346Z,7.70
2018-04-07T13:29:45.896Z,7.60
2018-04-07T13:32:13.534Z,7.13
2018-04-07T13:34:41.083Z,8.77
2018-04-07T13:37:08.759Z,9.67
2018-04-07T13:39:36.391Z,9.00
2018-04-07T13:42:03.957Z,8.63
2018-04-07T13:44:31.540Z,9.00
2018-04-07T13:46:59.171Z,9.03
2018-04-07T13:49:26.786Z,9.73
2018-04-07T13:51:54.418Z,9.47
2018-04-07T13:54:21.982Z,9.80
2018-04-07T13:56:49.535Z,7.90
2018-04-07T13:59:17.154Z,8.30
2018-04-07T14:01:44.846Z,8.67
2018-04-07T14:04:12.881Z,9.37
2018-04-07T14:06:40.530Z,8.77
2018-04-07T14:09:08.191Z,9.53
2018-04-07T14:11:35.772Z,9.03
2018-04-07T14:14:03.443Z,8.53
2018-04-07T14:16:31.001Z,9.60
2018-04-07T14:18:58.567Z,8.50
2018-04-07T14:21:26.150Z,8.33
2018-04-07T14:23:53.783Z,11.03
2018-04-07T14:26:21.458Z,9.30
2018-04-07T14:28:49.098Z,8.57
2018-04-07T14:31:16.667Z,7.97
2018-04-07T14:33:44.302Z,7.00
2018-04-07T14:36:11.874Z,9.37
2018-04-07T14:38:39.470Z,8.47
2018-04-07T14:41:07.035Z,8.33
2018-04-07T14:43:34.706Z,8.37
2018-04-07T14:46:02.286Z,7.20
2018-04-07T14:48:29.946Z,8.27
2018-04-07T14:50:57.578Z,6.70
2018-04-07T14:53:25.211Z,9.23
2018-04-07T14:55:52.839Z,6.80
2018-04-07T14:58:20.415Z,8.63
2018-04-07T15:00:48.003Z,7.23
2018-04-07T15:03:15.697Z,7.27
2018-04-07T15:05:43.286Z,8.80
2018-04-07T15:08:10.854Z,6.70
2018-04-07T15:10:38.431Z,8.07
2018-04-07T15:13:06.071Z,7.30
2018-04-07T15:15:33.638Z,6.90
2018-04-07T15:18:01.223Z,7.87
2018-04-07T15:20:28.858Z,7.07
2018-04-07T15:22:56.539Z,5.93
2018-04-07T15:25:24.197Z,9.77
2018-04-07T15:27:51.774Z,6.93
2018-04-07T15:30:19.348Z,7.50
2018-04-07T15:32:46.985Z,6.20
2018-04-07T15:35:14.569Z,6.00
2018-04-07T15:37:42.134Z,5.50
2018-04-07T15:40:09.755Z,5.90
2018-04-07T15:42:37.380Z,6.00
2018-04-07T15:45:04.954Z,6.00
2018-04-07T15:47:32.560Z,5.70
2018-04-07T15:50:00.244Z,7.00
2018-04-07T15:52:27.943Z,6.50
2018-04-07T15:54:55.534Z,6.80
2018-04-07T15:57:23.138Z,5.20
2018-04-07T15:59:50.758Z,6.20
2018-04-07T16:02:18.429Z,5.93
2018-04-07T16:04:46.082Z,6.20
2018-04-07T16:07:13.726Z,6.27
2018-04-07T16:09:41.303Z,8.40
2018-04-07T16:12:09.021Z,7.50
2018-04-07T16:14:36.594Z,7.17
2018-04-07T16:17:04.285Z,7.43
2018-04-07T16:19:31.889Z,8.70
2018-04-07T16:21:59.532Z,8.30
2018-04-07T16:24:27.113Z,8.30
2018-04-07T16:26:54.677Z,6.83
2018-04-07T16:29:22.310Z,6.43
2018-04-07T16:31:49.886Z,6.80
2018-04-07T16:34:17.507Z,6.20
2018-04-07T16:36:45.077Z,6.60
2018-04-07T16:39:12.638Z,6.57
2018-04-07T16:41:40.215Z,6.90
2018-04-07T16:44:07.880Z,7.13
2018-04-07T16:46:35.541Z,7.23
2018-04-07T16:49:03.174Z,6.37
2018-04-07T16:51:30.793Z,6.40
2018-04-07T16:53:58.380Z,6.53
2018-04-07T16:56:26.002Z,6.20
2018-04-07T16:58:53.574Z,7.67
2018-04-07T17:01:21.146Z,8.00
2018-04-07T17:03:48.833Z,10.77
2018-04-07T17:06:16.449Z,8.47
2018-04-07T17:08:44.080Z,7.20
2018-04-07T17:11:11.714Z,7.37
2018-04-07T17:13:39.277Z,7.50
2018-04-07T17:16:06.859Z,8.70
2018-04-07T17:18:34.479Z,6.90
2018-04-07T17:21:02.137Z,9.50
2018-04-07T17:23:29.808Z,7.40
2018-04-07T17:25:57.443Z,8.47
2018-04-07T17:28:25.032Z,8.63
2018-04-07T17:30:52.604Z,8.07
2018-04-07T17:33:20.174Z,7.10
2018-04-07T17:35:47.734Z,7.43
2018-04-07T17:38:15.420Z,8.17
2018-04-07T17:40:43.087Z,7.63
2018-04-07T17:43:10.667Z,7.90
2018-04-07T17:45:38.318Z,8.70
2018-04-07T17:48:05.899Z,7.53
2018-04-07T17:50:33.501Z,8.43
2018-04-07T17:53:01.295Z,9.07
2018-04-07T17:55:28.918Z,8.80
2018-04-07T17:57:56.536Z,9.60
2018-04-07T18:00:24.102Z,8.77
2018-04-07T18:02:51.673Z,7.87
2018-04-07T18:05:19.240Z,7.97
2018-04-07T18:07:46.934Z,8.67
2018-04-07T18:10:14.507Z,8.40
2018-04-07T18:12:42.122Z,7.47
2018-04-07T18:15:09.686Z,8.57
2018-04-07T18:17:37.276Z,8.30
2018-04-07T18:20:04.857Z,8.60
2018-04-07T18:22:32.489Z,8.47
2018-04-07T18:25:00.091Z,8.77
2018-04-07T18:27:27.667Z,6.97
2018-04-07T18:29:55.349Z,7.57
2018-04-07T18:32:22.917Z,6.70
2018-04-07T18:34:50.548Z,8.17
2018-04-07T18:37:18.231Z,7.53
2018-04-07T18:39:45.822Z,8.40
2018-04-07T18:42:13.403Z,10.30
2018-04-07T18:44:41.031Z,8.07
2018-04-07T18:47:08.672Z,8.30
2018-04-07T18:49:36.252Z,8.60
2018-04-07T18:52:03.879Z,7.87
2018-04-07T18:54:31.478Z,7.97
2018-04-07T18:56:59.030Z,8.43
2018-04-07T18:59:26.603Z,8.83
2018-04-07T19:01:54.187Z,11.83
2018-04-07T19:04:21.830Z,11.63
2018-04-07T19:06:49.490Z,12.93
2018-04-07T19:09:17.089Z,12.57
2018-04-07T19:11:44.706Z,13.40
2018-04-07T19:14:12.269Z,11.00
2018-04-07T19:16:39.844Z,10.50
2018-04-07T19:19:07.521Z,12.30
2018-04-07T19:21:35.242Z,11.63
2018-04-07T19:24:02.821Z,13.33
2018-04-07T19:26:30.390Z,12.23
2018-04-07T19:28:57.966Z,11.87
2018-04-07T19:31:25.595Z,13.37
2018-04-07T19:33:53.188Z,14.43
2018-04-07T19:36:20.802Z,14.53
2018-04-07T19:38:48.458Z,13.17
2018-04-07T19:41:16.036Z,12.60
2018-04-07T19:43:43.627Z,12.17
2018-04-07T19:46:11.284Z,10.37
2018-04-07T19:48:38.857Z,9.60
2018-04-07T19:51:06.443Z,11.00
2018-04-07T19:53:34.022Z,9.83
2018-04-07T19:56:01.638Z,10.43
2018-04-07T19:58:29.216Z,11.60
2018-04-07T20:00:56.786Z,10.67
2018-04-07T20:03:24.403Z,12.37
2018-04-07T20:05:51.974Z,12.87
2018-04-07T20:08:19.562Z,12.27
2018-04-07T20:10:47.146Z,14.70
2018-04-07T20:13:14.830Z,12.53
2018-04-07T20:15:42.507Z,10.27
2018-04-07T20:18:10.142Z,12.90
2018-04-07T20:20:37.798Z,11.87
2018-04-07T20:23:05.431Z,9.77
2018-04-07T20:25:33.101Z,10.30
2018-04-07T20:28:00.690Z,11.53
2018-04-07T20:30:28.320Z,11.50
2018-04-07T20:32:55.906Z,11.27
2018-04-07T20:35:23.530Z,10.20
2018-04-07T20:37:51.115Z,10.43
2018-04-07T20:40:18.689Z,11.23
2018-04-07T20:42:46.321Z,11.40
2018-04-07T20:45:13.886Z,10.27
2018-04-07T20:47:41.524Z,10.07
2018-04-07T20:50:09.094Z,9.80
2018-04-07T20:52:36.666Z,9.70
2018-04-07T20:55:04.346Z,9.00
2018-04-07T20:57:31.895Z,10.30
2018-04-07T20:59:59.466Z,9.60
2018-04-07T21:02:27.044Z,9.80
2018-04-07T21:04:54.676Z,10.30
2018-04-07T21:07:22.249Z,8.90
2018-04-07T21:09:49.879Z,9.50
2018-04-07T21:12:17.479Z,9.30
2018-04-07T21:14:45.134Z,10.87
2018-04-07T21:17:12.698Z,9.00
2018-04-07T21:19:40.330Z,9.90
2018-04-07T21:22:07.908Z,8.53
2018-04-07T21:24:35.586Z,9.83
2018-04-07T21:27:03.211Z,10.00
2018-04-07T21:29:30.786Z,9.57
2018-04-07T21:31:58.362Z,9.37
2018-04-07T21:34:25.935Z,10.37
2018-04-07T21:36:53.578Z,8.90
2018-04-07T21:39:21.202Z,10.33
2018-04-07T21:41:48.896Z,10.40
2018-04-07T21:44:16.507Z,9.37
2018-04-07T21:46:44.127Z,8.73
2018-04-07T21:49:11.683Z,7.70
2018-04-07T21:51:39.246Z,8.80
2018-04-07T21:54:06.823Z,8.23
2018-04-07T21:56:34.399Z,9.70
2018-04-07T21:59:02.038Z,8.93
2018-04-07T22:01:29.663Z,9.90
2018-04-07T22:03:57.295Z,8.40
2018-04-07T22:06:24.869Z,9.13
2018-04-07T22:08:52.465Z,7.17
2018-04-07T22:11:20.156Z,8.80
2018-04-07T22:13:47.765Z,9.33
2018-04-07T22:16:15.403Z,9.83
2018-04-07T22:18:42.966Z,8.20
2018-04-07T22:21:10.538Z,8.13
2018-04-07T22:23:38.116Z,9.03
2018-04-07T22:26:05.722Z,9.00
2018-04-07T22:28:33.290Z,9.83
2018-04-07T22:31:00.904Z,10.00
2018-04-07T22:33:28.622Z,8.90
2018-04-07T22:35:56.223Z,10.30
2018-04-07T22:38:23.893Z,10.13
2018-04-07T22:40:51.470Z,9.20
2018-04-07T22:43:19.065Z,11.07
2018-04-07T22:45:46.642Z,9.73
2018-04-07T22:48:14.216Z,11.30
2018-04-07T22:50:41.902Z,11.73
2018-04-07T22:53:09.464Z,9.93
2018-04-07T22:55:37.029Z,9.13
2018-04-07T22:58:04.677Z,8.87
2018-04-07T23:00:32.304Z,9.07
2018-04-07T23:02:59.934Z,8.07
2018-04-07T23:05:27.498Z,7.57
2018-04-07T23:07:55.155Z,7.33
2018-04-07T23:10:22.775Z,7.13
2018-04-07T23:12:50.365Z,6.70
2018-04-07T23:15:17.933Z,6.73
2018-04-07T23:17:45.549Z,5.90
2018-04-07T23:20:13.122Z,7.93
2018-04-07T23:22:40.682Z,6.87
2018-04-07T23:25:08.298Z,6.50
2018-04-07T23:27:35.857Z,7.07
2018-04-07T23:30:03.422Z,7.10
2018-04-07T23:32:31.002Z,6.90
2018-04-07T23:34:58.627Z,6.37
2018-04-07T23:37:26.250Z,6.63
2018-04-07T23:39:53.806Z,5.73
2018-04-07T23:42:21.490Z,8.60
2018-04-07T23:44:49.049Z,7.47
2018-04-07T23:47:16.610Z,7.50
2018-04-07T23:49:44.238Z,7.10
2018-04-07T23:52:11.798Z,7.23
2018-04-07T23:54:39.373Z,7.97
2018-04-07T23:57:06.990Z,8.33
2018-04-07T23:59:34.597Z,7.57
